Terminal Aerodrome Forecast
Issued by NWS

Home | Current Version | Previous Version | Text Only | Print | Product List | Glossary Off
Versions: 1 2 3 4 5 6 7 8 9 10 11 12 13 14

000
FTUS43 KUNR 040520
TAFGCC
TAF
KGCC 040520Z 0406/0506 14010KT P6SM SCT080 BKN150
     FM041600 VRB10KT P6SM -TSRA OVC040CB=

USA.gov is the U.S. government's official web portal to all federal, state and local government web resources and services.